sensor_id;sensor_type;location;lat;lon;timestamp;P1;durP1;ratioP1;P2;durP2;ratioP2
33268;SDS011;19640;50.944;5.260;2022-12-29T00:01:54;0.80;;;0.70;;
33268;SDS011;19640;50.944;5.260;2022-12-29T00:04:20;1.05;;;0.93;;
33268;SDS011;19640;50.944;5.260;2022-12-29T00:06:46;0.60;;;0.60;;
33268;SDS011;19640;50.944;5.260;2022-12-29T00:09:12;2.85;;;0.90;;
33268;SDS011;19640;50.944;5.260;2022-12-29T00:11:38;0.60;;;0.60;;
33268;SDS011;19640;50.944;5.260;2022-12-29T00:14:04;1.52;;;0.68;;
33268;SDS011;19640;50.944;5.260;2022-12-29T00:16:48;0.50;;;0.50;;
33268;SDS011;19640;50.944;5.260;2022-12-29T00:19:14;1.25;;;0.50;;
33268;SDS011;19640;50.944;5.260;2022-12-29T00:21:58;0.77;;;0.60;;
33268;SDS011;19640;50.944;5.260;2022-12-29T00:24:46;1.95;;;0.52;;
33268;SDS011;19640;50.944;5.260;2022-12-29T00:27:29;1.10;;;0.40;;
33268;SDS011;19640;50.944;5.260;2022-12-29T00:30:15;0.68;;;0.47;;
33268;SDS011;19640;50.944;5.260;2022-12-29T00:33:08;1.00;;;0.50;;
33268;SDS011;19640;50.944;5.260;2022-12-29T00:35:58;0.93;;;0.50;;
33268;SDS011;19640;50.944;5.260;2022-12-29T00:38:26;0.77;;;0.40;;
33268;SDS011;19640;50.944;5.260;2022-12-29T00:41:12;0.82;;;0.40;;
33268;SDS011;19640;50.944;5.260;2022-12-29T00:43:56;1.63;;;0.50;;
33268;SDS011;19640;50.944;5.260;2022-12-29T00:46:34;0.40;;;0.40;;
33268;SDS011;19640;50.944;5.260;2022-12-29T00:49:05;0.55;;;0.40;;
33268;SDS011;19640;50.944;5.260;2022-12-29T00:51:50;1.55;;;0.40;;
33268;SDS011;19640;50.944;5.260;2022-12-29T00:54:16;0.45;;;0.30;;
33268;SDS011;19640;50.944;5.260;2022-12-29T00:56:42;2.78;;;0.60;;
33268;SDS011;19640;50.944;5.260;2022-12-29T00:59:09;0.30;;;0.30;;
33268;SDS011;19640;50.944;5.260;2022-12-29T01:01:36;1.08;;;0.35;;
33268;SDS011;19640;50.944;5.260;2022-12-29T01:04:03;0.75;;;0.40;;
33268;SDS011;19640;50.944;5.260;2022-12-29T01:06:29;1.45;;;0.50;;
33268;SDS011;19640;50.944;5.260;2022-12-29T01:08:54;2.08;;;0.40;;
33268;SDS011;19640;50.944;5.260;2022-12-29T01:11:39;0.32;;;0.30;;
33268;SDS011;19640;50.944;5.260;2022-12-29T01:14:05;1.55;;;0.47;;
33268;SDS011;19640;50.944;5.260;2022-12-29T01:16:31;1.38;;;0.45;;
33268;SDS011;19640;50.944;5.260;2022-12-29T01:18:57;1.98;;;0.60;;
33268;SDS011;19640;50.944;5.260;2022-12-29T01:21:24;1.55;;;0.70;;
33268;SDS011;19640;50.944;5.260;2022-12-29T01:23:50;1.85;;;0.40;;
33268;SDS011;19640;50.944;5.260;2022-12-29T01:26:16;3.35;;;0.70;;
33268;SDS011;19640;50.944;5.260;2022-12-29T01:28:42;0.82;;;0.50;;
33268;SDS011;19640;50.944;5.260;2022-12-29T01:31:09;1.17;;;0.50;;
33268;SDS011;19640;50.944;5.260;2022-12-29T01:33:35;0.82;;;0.50;;
33268;SDS011;19640;50.944;5.260;2022-12-29T01:36:01;2.25;;;0.65;;
33268;SDS011;19640;50.944;5.260;2022-12-29T01:38:28;2.33;;;0.60;;
33268;SDS011;19640;50.944;5.260;2022-12-29T01:40:53;1.00;;;0.47;;
33268;SDS011;19640;50.944;5.260;2022-12-29T01:43:19;0.55;;;0.30;;
33268;SDS011;19640;50.944;5.260;2022-12-29T01:45:51;2.05;;;0.57;;
33268;SDS011;19640;50.944;5.260;2022-12-29T01:48:18;1.10;;;0.50;;
33268;SDS011;19640;50.944;5.260;2022-12-29T01:50:53;1.42;;;0.60;;
33268;SDS011;19640;50.944;5.260;2022-12-29T01:53:20;3.10;;;0.60;;
33268;SDS011;19640;50.944;5.260;2022-12-29T01:55:52;1.70;;;0.65;;
33268;SDS011;19640;50.944;5.260;2022-12-29T01:58:24;3.60;;;0.63;;
33268;SDS011;19640;50.944;5.260;2022-12-29T02:00:54;4.40;;;0.60;;
33268;SDS011;19640;50.944;5.260;2022-12-29T02:03:20;3.72;;;0.63;;
33268;SDS011;19640;50.944;5.260;2022-12-29T02:05:52;3.05;;;0.65;;
33268;SDS011;19640;50.944;5.260;2022-12-29T02:08:38;1.20;;;0.60;;
33268;SDS011;19640;50.944;5.260;2022-12-29T02:11:05;1.20;;;0.70;;
33268;SDS011;19640;50.944;5.260;2022-12-29T02:13:32;2.20;;;0.60;;
33268;SDS011;19640;50.944;5.260;2022-12-29T02:27:02;1.50;;;0.50;;
33268;SDS011;19640;50.944;5.260;2022-12-29T02:30:09;1.02;;;0.40;;
33268;SDS011;19640;50.944;5.260;2022-12-29T02:41:19;0.85;;;0.32;;
33268;SDS011;19640;50.944;5.260;2022-12-29T02:49:19;2.30;;;0.52;;
33268;SDS011;19640;50.944;5.260;2022-12-29T02:52:07;1.67;;;0.50;;
33268;SDS011;19640;50.944;5.260;2022-12-29T02:54:42;2.85;;;0.57;;
33268;SDS011;19640;50.944;5.260;2022-12-29T02:57:12;1.15;;;0.50;;
33268;SDS011;19640;50.944;5.260;2022-12-29T02:59:52;0.75;;;0.55;;
33268;SDS011;19640;50.944;5.260;2022-12-29T03:12:45;1.05;;;0.40;;
33268;SDS011;19640;50.944;5.260;2022-12-29T03:15:42;1.45;;;0.20;;
33268;SDS011;19640;50.944;5.260;2022-12-29T03:24:20;1.40;;;0.35;;
33268;SDS011;19640;50.944;5.260;2022-12-29T03:26:50;0.70;;;0.40;;
33268;SDS011;19640;50.944;5.260;2022-12-29T03:29:19;0.32;;;0.30;;
33268;SDS011;19640;50.944;5.260;2022-12-29T03:31:46;1.02;;;0.40;;
33268;SDS011;19640;50.944;5.260;2022-12-29T03:34:15;1.05;;;0.40;;
33268;SDS011;19640;50.944;5.260;2022-12-29T03:36:46;2.20;;;0.35;;
33268;SDS011;19640;50.944;5.260;2022-12-29T03:39:17;0.82;;;0.30;;
33268;SDS011;19640;50.944;5.260;2022-12-29T03:41:46;0.88;;;0.50;;
33268;SDS011;19640;50.944;5.260;2022-12-29T03:44:14;0.80;;;0.50;;
33268;SDS011;19640;50.944;5.260;2022-12-29T03:46:39;3.58;;;0.50;;
33268;SDS011;19640;50.944;5.260;2022-12-29T03:49:05;1.05;;;0.43;;
33268;SDS011;19640;50.944;5.260;2022-12-29T03:51:30;1.17;;;0.50;;
33268;SDS011;19640;50.944;5.260;2022-12-29T03:53:56;1.63;;;0.47;;
33268;SDS011;19640;50.944;5.260;2022-12-29T03:56:22;1.90;;;0.43;;
33268;SDS011;19640;50.944;5.260;2022-12-29T03:58:47;2.60;;;0.50;;
33268;SDS011;19640;50.944;5.260;2022-12-29T04:01:13;1.70;;;0.50;;
33268;SDS011;19640;50.944;5.260;2022-12-29T04:03:38;1.35;;;0.35;;
33268;SDS011;19640;50.944;5.260;2022-12-29T04:06:04;2.17;;;0.32;;
33268;SDS011;19640;50.944;5.260;2022-12-29T04:08:30;1.00;;;0.30;;
33268;SDS011;19640;50.944;5.260;2022-12-29T04:10:55;1.85;;;0.50;;
33268;SDS011;19640;50.944;5.260;2022-12-29T04:13:21;2.40;;;0.50;;
33268;SDS011;19640;50.944;5.260;2022-12-29T04:15:46;0.73;;;0.32;;
33268;SDS011;19640;50.944;5.260;2022-12-29T04:18:12;1.20;;;0.50;;
33268;SDS011;19640;50.944;5.260;2022-12-29T04:20:38;3.38;;;0.38;;
33268;SDS011;19640;50.944;5.260;2022-12-29T04:23:23;1.08;;;0.30;;
33268;SDS011;19640;50.944;5.260;2022-12-29T04:25:48;1.13;;;0.30;;
33268;SDS011;19640;50.944;5.260;2022-12-29T04:28:15;1.65;;;0.30;;
33268;SDS011;19640;50.944;5.260;2022-12-29T04:30:42;2.33;;;0.40;;
33268;SDS011;19640;50.944;5.260;2022-12-29T04:33:08;1.55;;;0.47;;
33268;SDS011;19640;50.944;5.260;2022-12-29T04:35:34;2.38;;;0.43;;
33268;SDS011;19640;50.944;5.260;2022-12-29T04:38:01;2.75;;;0.40;;
33268;SDS011;19640;50.944;5.260;2022-12-29T04:40:27;2.22;;;0.40;;
33268;SDS011;19640;50.944;5.260;2022-12-29T04:42:53;3.78;;;0.55;;
33268;SDS011;19640;50.944;5.260;2022-12-29T04:45:18;4.70;;;0.40;;
33268;SDS011;19640;50.944;5.260;2022-12-29T04:47:44;3.25;;;0.50;;
33268;SDS011;19640;50.944;5.260;2022-12-29T04:50:10;3.70;;;0.50;;
33268;SDS011;19640;50.944;5.260;2022-12-29T04:52:35;1.42;;;0.50;;
33268;SDS011;19640;50.944;5.260;2022-12-29T04:55:01;2.33;;;0.57;;
33268;SDS011;19640;50.944;5.260;2022-12-29T04:57:27;2.00;;;0.57;;
33268;SDS011;19640;50.944;5.260;2022-12-29T04:59:53;2.20;;;0.52;;
33268;SDS011;19640;50.944;5.260;2022-12-29T05:02:18;4.70;;;0.60;;
33268;SDS011;19640;50.944;5.260;2022-12-29T05:04:44;1.75;;;0.30;;
33268;SDS011;19640;50.944;5.260;2022-12-29T05:07:10;2.90;;;0.32;;
33268;SDS011;19640;50.944;5.260;2022-12-29T05:09:37;2.60;;;0.68;;
33268;SDS011;19640;50.944;5.260;2022-12-29T05:12:03;2.53;;;0.52;;
33268;SDS011;19640;50.944;5.260;2022-12-29T05:14:29;1.65;;;0.35;;
33268;SDS011;19640;50.944;5.260;2022-12-29T05:16:54;1.80;;;0.43;;
33268;SDS011;19640;50.944;5.260;2022-12-29T05:19:20;2.13;;;0.60;;
33268;SDS011;19640;50.944;5.260;2022-12-29T05:21:46;3.53;;;0.63;;
33268;SDS011;19640;50.944;5.260;2022-12-29T05:24:11;1.95;;;0.40;;
33268;SDS011;19640;50.944;5.260;2022-12-29T05:26:37;1.88;;;0.52;;
33268;SDS011;19640;50.944;5.260;2022-12-29T05:29:03;2.85;;;0.50;;
33268;SDS011;19640;50.944;5.260;2022-12-29T05:31:28;2.08;;;0.55;;
33268;SDS011;19640;50.944;5.260;2022-12-29T05:33:54;2.03;;;0.40;;
33268;SDS011;19640;50.944;5.260;2022-12-29T05:36:19;0.95;;;0.30;;
33268;SDS011;19640;50.944;5.260;2022-12-29T05:38:45;3.40;;;0.50;;
33268;SDS011;19640;50.944;5.260;2022-12-29T05:41:11;2.05;;;0.55;;
33268;SDS011;19640;50.944;5.260;2022-12-29T05:43:37;3.30;;;0.45;;
33268;SDS011;19640;50.944;5.260;2022-12-29T05:46:03;2.75;;;0.47;;
33268;SDS011;19640;50.944;5.260;2022-12-29T05:48:28;1.65;;;0.50;;
33268;SDS011;19640;50.944;5.260;2022-12-29T05:50:54;2.17;;;0.50;;
33268;SDS011;19640;50.944;5.260;2022-12-29T05:53:19;1.52;;;0.43;;
33268;SDS011;19640;50.944;5.260;2022-12-29T05:55:48;3.15;;;0.65;;
33268;SDS011;19640;50.944;5.260;2022-12-29T05:58:15;5.20;;;0.60;;
33268;SDS011;19640;50.944;5.260;2022-12-29T06:00:41;5.38;;;0.63;;
33268;SDS011;19640;50.944;5.260;2022-12-29T06:03:08;3.58;;;0.43;;
33268;SDS011;19640;50.944;5.260;2022-12-29T06:05:33;4.95;;;0.60;;
33268;SDS011;19640;50.944;5.260;2022-12-29T06:07:59;3.30;;;0.93;;
33268;SDS011;19640;50.944;5.260;2022-12-29T06:10:24;2.33;;;0.50;;
33268;SDS011;19640;50.944;5.260;2022-12-29T06:12:50;2.90;;;1.00;;
33268;SDS011;19640;50.944;5.260;2022-12-29T06:15:16;2.83;;;0.50;;
33268;SDS011;19640;50.944;5.260;2022-12-29T06:17:42;3.05;;;0.55;;
33268;SDS011;19640;50.944;5.260;2022-12-29T06:20:08;2.10;;;0.50;;
33268;SDS011;19640;50.944;5.260;2022-12-29T06:22:35;7.18;;;0.68;;
33268;SDS011;19640;50.944;5.260;2022-12-29T06:25:02;6.15;;;1.13;;
33268;SDS011;19640;50.944;5.260;2022-12-29T06:27:28;3.03;;;0.70;;
33268;SDS011;19640;50.944;5.260;2022-12-29T06:29:54;7.38;;;1.13;;
33268;SDS011;19640;50.944;5.260;2022-12-29T06:32:19;6.78;;;0.77;;
33268;SDS011;19640;50.944;5.260;2022-12-29T06:34:45;4.72;;;1.02;;
33268;SDS011;19640;50.944;5.260;2022-12-29T06:37:11;6.32;;;0.60;;
33268;SDS011;19640;50.944;5.260;2022-12-29T06:39:38;7.13;;;0.70;;
33268;SDS011;19640;50.944;5.260;2022-12-29T06:42:03;3.78;;;0.60;;
33268;SDS011;19640;50.944;5.260;2022-12-29T06:44:29;4.18;;;0.85;;
33268;SDS011;19640;50.944;5.260;2022-12-29T06:46:55;4.28;;;0.88;;
33268;SDS011;19640;50.944;5.260;2022-12-29T06:49:22;6.03;;;0.77;;
33268;SDS011;19640;50.944;5.260;2022-12-29T06:51:48;6.75;;;1.13;;
33268;SDS011;19640;50.944;5.260;2022-12-29T06:54:13;3.47;;;1.10;;
33268;SDS011;19640;50.944;5.260;2022-12-29T06:56:39;3.58;;;0.55;;
33268;SDS011;19640;50.944;5.260;2022-12-29T06:59:05;5.78;;;0.80;;
33268;SDS011;19640;50.944;5.260;2022-12-29T07:01:31;8.48;;;1.00;;
33268;SDS011;19640;50.944;5.260;2022-12-29T07:03:57;3.75;;;0.80;;
33268;SDS011;19640;50.944;5.260;2022-12-29T07:06:22;4.40;;;0.82;;
33268;SDS011;19640;50.944;5.260;2022-12-29T07:08:48;4.30;;;0.80;;
33268;SDS011;19640;50.944;5.260;2022-12-29T07:11:14;4.43;;;0.70;;
33268;SDS011;19640;50.944;5.260;2022-12-29T07:13:39;4.28;;;1.00;;
33268;SDS011;19640;50.944;5.260;2022-12-29T07:16:09;4.43;;;0.70;;
33268;SDS011;19640;50.944;5.260;2022-12-29T07:18:35;2.95;;;0.60;;
33268;SDS011;19640;50.944;5.260;2022-12-29T07:21:01;4.85;;;0.73;;
33268;SDS011;19640;50.944;5.260;2022-12-29T07:23:27;6.22;;;0.85;;
33268;SDS011;19640;50.944;5.260;2022-12-29T07:26:02;5.30;;;1.48;;
33268;SDS011;19640;50.944;5.260;2022-12-29T07:28:29;5.07;;;0.75;;
33268;SDS011;19640;50.944;5.260;2022-12-29T07:30:56;3.97;;;0.85;;
33268;SDS011;19640;50.944;5.260;2022-12-29T07:33:21;4.20;;;0.93;;
33268;SDS011;19640;50.944;5.260;2022-12-29T07:35:47;8.85;;;1.00;;
33268;SDS011;19640;50.944;5.260;2022-12-29T07:38:13;7.57;;;1.35;;
33268;SDS011;19640;50.944;5.260;2022-12-29T07:40:38;3.60;;;0.70;;
33268;SDS011;19640;50.944;5.260;2022-12-29T07:43:04;3.80;;;1.17;;
33268;SDS011;19640;50.944;5.260;2022-12-29T07:45:30;5.53;;;0.70;;
33268;SDS011;19640;50.944;5.260;2022-12-29T07:47:55;4.05;;;0.90;;
33268;SDS011;19640;50.944;5.260;2022-12-29T07:50:21;7.80;;;0.65;;
33268;SDS011;19640;50.944;5.260;2022-12-29T07:52:46;5.07;;;2.10;;
33268;SDS011;19640;50.944;5.260;2022-12-29T07:55:13;6.70;;;0.80;;
33268;SDS011;19640;50.944;5.260;2022-12-29T07:57:39;4.35;;;0.93;;
33268;SDS011;19640;50.944;5.260;2022-12-29T08:00:05;5.35;;;1.33;;
33268;SDS011;19640;50.944;5.260;2022-12-29T08:02:31;7.63;;;1.20;;
33268;SDS011;19640;50.944;5.260;2022-12-29T08:04:56;3.42;;;0.73;;
33268;SDS011;19640;50.944;5.260;2022-12-29T08:07:22;4.40;;;0.70;;
33268;SDS011;19640;50.944;5.260;2022-12-29T08:09:48;6.40;;;1.40;;
33268;SDS011;19640;50.944;5.260;2022-12-29T08:12:13;5.50;;;1.00;;
33268;SDS011;19640;50.944;5.260;2022-12-29T08:14:39;5.47;;;1.00;;
33268;SDS011;19640;50.944;5.260;2022-12-29T08:17:05;6.53;;;1.05;;
33268;SDS011;19640;50.944;5.260;2022-12-29T08:19:30;4.22;;;0.60;;
33268;SDS011;19640;50.944;5.260;2022-12-29T08:21:56;3.38;;;0.63;;
33268;SDS011;19640;50.944;5.260;2022-12-29T08:24:22;3.70;;;0.60;;
33268;SDS011;19640;50.944;5.260;2022-12-29T08:26:47;6.43;;;1.02;;
33268;SDS011;19640;50.944;5.260;2022-12-29T08:29:13;5.57;;;0.90;;
33268;SDS011;19640;50.944;5.260;2022-12-29T08:31:39;6.90;;;1.23;;
33268;SDS011;19640;50.944;5.260;2022-12-29T08:34:04;4.35;;;1.35;;
33268;SDS011;19640;50.944;5.260;2022-12-29T08:36:30;4.32;;;1.10;;
33268;SDS011;19640;50.944;5.260;2022-12-29T08:38:56;2.78;;;0.70;;
33268;SDS011;19640;50.944;5.260;2022-12-29T08:41:22;7.30;;;1.00;;
33268;SDS011;19640;50.944;5.260;2022-12-29T08:43:48;6.10;;;1.08;;
33268;SDS011;19640;50.944;5.260;2022-12-29T08:46:14;5.13;;;0.70;;
33268;SDS011;19640;50.944;5.260;2022-12-29T08:48:41;17.30;;;1.30;;
33268;SDS011;19640;50.944;5.260;2022-12-29T08:51:07;6.10;;;0.90;;
33268;SDS011;19640;50.944;5.260;2022-12-29T08:53:33;2.17;;;0.55;;
33268;SDS011;19640;50.944;5.260;2022-12-29T08:55:59;10.52;;;1.25;;
33268;SDS011;19640;50.944;5.260;2022-12-29T08:58:26;7.10;;;0.90;;
33268;SDS011;19640;50.944;5.260;2022-12-29T09:00:53;4.47;;;0.90;;
33268;SDS011;19640;50.944;5.260;2022-12-29T09:03:19;6.55;;;0.95;;
33268;SDS011;19640;50.944;5.260;2022-12-29T09:05:52;6.00;;;0.85;;
33268;SDS011;19640;50.944;5.260;2022-12-29T09:08:19;4.15;;;0.85;;
33268;SDS011;19640;50.944;5.260;2022-12-29T09:10:45;10.45;;;0.80;;
33268;SDS011;19640;50.944;5.260;2022-12-29T09:13:11;5.03;;;0.90;;
33268;SDS011;19640;50.944;5.260;2022-12-29T09:15:37;3.55;;;0.82;;
33268;SDS011;19640;50.944;5.260;2022-12-29T09:18:04;5.57;;;0.77;;
33268;SDS011;19640;50.944;5.260;2022-12-29T09:20:30;3.08;;;0.90;;
33268;SDS011;19640;50.944;5.260;2022-12-29T09:22:56;4.50;;;0.80;;
33268;SDS011;19640;50.944;5.260;2022-12-29T09:25:21;7.90;;;1.20;;
33268;SDS011;19640;50.944;5.260;2022-12-29T09:27:49;7.47;;;1.17;;
33268;SDS011;19640;50.944;5.260;2022-12-29T09:30:17;4.05;;;0.73;;
33268;SDS011;19640;50.944;5.260;2022-12-29T09:32:44;6.68;;;1.10;;
33268;SDS011;19640;50.944;5.260;2022-12-29T09:35:09;11.77;;;1.13;;
33268;SDS011;19640;50.944;5.260;2022-12-29T09:37:35;11.70;;;1.42;;
33268;SDS011;19640;50.944;5.260;2022-12-29T09:40:01;6.10;;;1.17;;
33268;SDS011;19640;50.944;5.260;2022-12-29T09:42:45;5.03;;;0.88;;
33268;SDS011;19640;50.944;5.260;2022-12-29T09:45:36;4.28;;;0.82;;
33268;SDS011;19640;50.944;5.260;2022-12-29T09:48:14;4.68;;;1.83;;
33268;SDS011;19640;50.944;5.260;2022-12-29T09:50:56;5.13;;;0.93;;
33268;SDS011;19640;50.944;5.260;2022-12-29T09:55:54;8.88;;;1.05;;
33268;SDS011;19640;50.944;5.260;2022-12-29T10:01:05;5.05;;;0.85;;
33268;SDS011;19640;50.944;5.260;2022-12-29T10:06:15;7.32;;;1.08;;
33268;SDS011;19640;50.944;5.260;2022-12-29T10:11:55;6.55;;;1.73;;
33268;SDS011;19640;50.944;5.260;2022-12-29T10:25:58;6.93;;;1.63;;
33268;SDS011;19640;50.944;5.260;2022-12-29T10:28:38;7.63;;;1.08;;
33268;SDS011;19640;50.944;5.260;2022-12-29T10:34:00;5.72;;;1.30;;
33268;SDS011;19640;50.944;5.260;2022-12-29T10:36:33;6.82;;;0.80;;
33268;SDS011;19640;50.944;5.260;2022-12-29T10:41:36;15.32;;;1.38;;
33268;SDS011;19640;50.944;5.260;2022-12-29T10:44:07;6.53;;;1.40;;
33268;SDS011;19640;50.944;5.260;2022-12-29T10:46:38;5.22;;;1.08;;
33268;SDS011;19640;50.944;5.260;2022-12-29T10:49:04;4.75;;;0.98;;
33268;SDS011;19640;50.944;5.260;2022-12-29T10:51:38;6.93;;;1.40;;
33268;SDS011;19640;50.944;5.260;2022-12-29T10:54:09;4.97;;;0.85;;
33268;SDS011;19640;50.944;5.260;2022-12-29T10:56:44;10.10;;;1.40;;
33268;SDS011;19640;50.944;5.260;2022-12-29T11:01:54;5.90;;;1.30;;
33268;SDS011;19640;50.944;5.260;2022-12-29T11:04:45;8.10;;;1.10;;
33268;SDS011;19640;50.944;5.260;2022-12-29T11:07:30;7.13;;;1.60;;
33268;SDS011;19640;50.944;5.260;2022-12-29T11:10:16;9.70;;;1.77;;
33268;SDS011;19640;50.944;5.260;2022-12-29T11:15:22;9.45;;;1.40;;
33268;SDS011;19640;50.944;5.260;2022-12-29T11:17:49;8.63;;;0.93;;
33268;SDS011;19640;50.944;5.260;2022-12-29T11:20:26;5.95;;;0.88;;
33268;SDS011;19640;50.944;5.260;2022-12-29T11:22:52;9.70;;;0.98;;
33268;SDS011;19640;50.944;5.260;2022-12-29T11:25:18;12.02;;;1.88;;
33268;SDS011;19640;50.944;5.260;2022-12-29T11:28:00;3.60;;;0.77;;
33268;SDS011;19640;50.944;5.260;2022-12-29T11:30:49;5.45;;;1.08;;
33268;SDS011;19640;50.944;5.260;2022-12-29T11:33:27;6.63;;;1.00;;
33268;SDS011;19640;50.944;5.260;2022-12-29T11:36:07;4.97;;;0.98;;
33268;SDS011;19640;50.944;5.260;2022-12-29T11:38:48;6.00;;;0.95;;
33268;SDS011;19640;50.944;5.260;2022-12-29T11:41:26;6.40;;;1.40;;
33268;SDS011;19640;50.944;5.260;2022-12-29T11:43:55;5.30;;;1.65;;
33268;SDS011;19640;50.944;5.260;2022-12-29T11:46:31;5.10;;;0.82;;
33268;SDS011;19640;50.944;5.260;2022-12-29T11:48:59;5.13;;;1.05;;
33268;SDS011;19640;50.944;5.260;2022-12-29T11:51:38;5.75;;;1.33;;
33268;SDS011;19640;50.944;5.260;2022-12-29T11:54:11;6.57;;;1.08;;
33268;SDS011;19640;50.944;5.260;2022-12-29T11:56:47;5.15;;;0.90;;
33268;SDS011;19640;50.944;5.260;2022-12-29T11:59:34;3.42;;;0.90;;
33268;SDS011;19640;50.944;5.260;2022-12-29T12:02:11;5.97;;;0.93;;
33268;SDS011;19640;50.944;5.260;2022-12-29T12:04:48;5.72;;;0.95;;
33268;SDS011;19640;50.944;5.260;2022-12-29T12:07:17;6.13;;;1.00;;
33268;SDS011;19640;50.944;5.260;2022-12-29T12:09:54;4.43;;;0.75;;
33268;SDS011;19640;50.944;5.260;2022-12-29T12:12:35;7.03;;;1.30;;
33268;SDS011;19640;50.944;5.260;2022-12-29T12:15:05;6.10;;;2.55;;
33268;SDS011;19640;50.944;5.260;2022-12-29T12:17:47;8.48;;;0.98;;
33268;SDS011;19640;50.944;5.260;2022-12-29T12:25:55;7.32;;;0.93;;
33268;SDS011;19640;50.944;5.260;2022-12-29T12:42:48;7.60;;;1.05;;
33268;SDS011;19640;50.944;5.260;2022-12-29T12:48:09;4.75;;;0.88;;
33268;SDS011;19640;50.944;5.260;2022-12-29T12:50:46;10.73;;;2.05;;
33268;SDS011;19640;50.944;5.260;2022-12-29T12:58:52;6.20;;;0.90;;
33268;SDS011;19640;50.944;5.260;2022-12-29T13:04:24;4.50;;;1.00;;
33268;SDS011;19640;50.944;5.260;2022-12-29T13:12:53;2.80;;;0.60;;
33268;SDS011;19640;50.944;5.260;2022-12-29T13:21:10;4.90;;;1.00;;
33268;SDS011;19640;50.944;5.260;2022-12-29T13:23:52;8.32;;;1.48;;
33268;SDS011;19640;50.944;5.260;2022-12-29T13:26:20;4.45;;;0.90;;
33268;SDS011;19640;50.944;5.260;2022-12-29T13:29:15;6.65;;;0.93;;
33268;SDS011;19640;50.944;5.260;2022-12-29T13:37:18;5.35;;;1.20;;
33268;SDS011;19640;50.944;5.260;2022-12-29T13:39:48;5.35;;;1.00;;
33268;SDS011;19640;50.944;5.260;2022-12-29T13:42:21;4.18;;;0.93;;
33268;SDS011;19640;50.944;5.260;2022-12-29T13:44:51;9.80;;;2.03;;
33268;SDS011;19640;50.944;5.260;2022-12-29T13:47:27;5.65;;;1.10;;
33268;SDS011;19640;50.944;5.260;2022-12-29T13:49:58;5.25;;;1.02;;
33268;SDS011;19640;50.944;5.260;2022-12-29T13:58:06;3.97;;;1.30;;
33268;SDS011;19640;50.944;5.260;2022-12-29T14:08:39;4.13;;;0.90;;
33268;SDS011;19640;50.944;5.260;2022-12-29T14:11:09;5.22;;;1.20;;
33268;SDS011;19640;50.944;5.260;2022-12-29T14:13:37;7.72;;;1.27;;
33268;SDS011;19640;50.944;5.260;2022-12-29T14:16:05;2.95;;;0.73;;
33268;SDS011;19640;50.944;5.260;2022-12-29T14:18:33;5.05;;;1.55;;
33268;SDS011;19640;50.944;5.260;2022-12-29T14:21:10;6.13;;;1.38;;
33268;SDS011;19640;50.944;5.260;2022-12-29T14:23:49;5.68;;;1.17;;
33268;SDS011;19640;50.944;5.260;2022-12-29T14:26:17;9.05;;;2.70;;
33268;SDS011;19640;50.944;5.260;2022-12-29T14:29:15;13.00;;;3.40;;
33268;SDS011;19640;50.944;5.260;2022-12-29T14:32:01;10.50;;;2.20;;
33268;SDS011;19640;50.944;5.260;2022-12-29T14:34:28;7.45;;;1.20;;
33268;SDS011;19640;50.944;5.260;2022-12-29T14:36:59;6.03;;;1.05;;
33268;SDS011;19640;50.944;5.260;2022-12-29T14:44:45;7.40;;;1.60;;
33268;SDS011;19640;50.944;5.260;2022-12-29T14:50:03;8.02;;;1.40;;
33268;SDS011;19640;50.944;5.260;2022-12-29T14:52:30;7.72;;;1.35;;
33268;SDS011;19640;50.944;5.260;2022-12-29T14:54:59;5.45;;;1.30;;
33268;SDS011;19640;50.944;5.260;2022-12-29T14:57:48;9.25;;;1.40;;
33268;SDS011;19640;50.944;5.260;2022-12-29T15:00:18;7.03;;;1.83;;
33268;SDS011;19640;50.944;5.260;2022-12-29T15:02:50;12.07;;;2.17;;
33268;SDS011;19640;50.944;5.260;2022-12-29T15:05:40;10.85;;;2.00;;
33268;SDS011;19640;50.944;5.260;2022-12-29T15:08:06;13.85;;;1.83;;
33268;SDS011;19640;50.944;5.260;2022-12-29T15:10:37;5.78;;;1.30;;
33268;SDS011;19640;50.944;5.260;2022-12-29T15:13:17;10.10;;;2.40;;
33268;SDS011;19640;50.944;5.260;2022-12-29T15:15:48;10.77;;;1.30;;
33268;SDS011;19640;50.944;5.260;2022-12-29T15:18:18;7.50;;;1.77;;
33268;SDS011;19640;50.944;5.260;2022-12-29T15:20:49;10.63;;;1.48;;
33268;SDS011;19640;50.944;5.260;2022-12-29T15:23:17;7.22;;;1.58;;
33268;SDS011;19640;50.944;5.260;2022-12-29T15:26:03;7.72;;;1.92;;
33268;SDS011;19640;50.944;5.260;2022-12-29T15:28:37;7.38;;;1.58;;
33268;SDS011;19640;50.944;5.260;2022-12-29T15:31:12;14.70;;;1.95;;
33268;SDS011;19640;50.944;5.260;2022-12-29T15:33:41;7.95;;;1.63;;
33268;SDS011;19640;50.944;5.260;2022-12-29T15:36:20;8.13;;;1.35;;
33268;SDS011;19640;50.944;5.260;2022-12-29T15:38:47;6.43;;;1.08;;
33268;SDS011;19640;50.944;5.260;2022-12-29T15:44:12;7.28;;;1.02;;
33268;SDS011;19640;50.944;5.260;2022-12-29T15:46:50;3.72;;;0.93;;
33268;SDS011;19640;50.944;5.260;2022-12-29T15:49:15;7.95;;;1.20;;
33268;SDS011;19640;50.944;5.260;2022-12-29T15:51:41;7.35;;;1.38;;
33268;SDS011;19640;50.944;5.260;2022-12-29T15:54:18;8.25;;;1.73;;
33268;SDS011;19640;50.944;5.260;2022-12-29T15:56:46;10.65;;;1.50;;
33268;SDS011;19640;50.944;5.260;2022-12-29T15:59:32;18.75;;;2.33;;
33268;SDS011;19640;50.944;5.260;2022-12-29T16:01:59;7.38;;;1.55;;
33268;SDS011;19640;50.944;5.260;2022-12-29T16:04:27;6.38;;;1.10;;
33268;SDS011;19640;50.944;5.260;2022-12-29T16:07:01;8.57;;;2.47;;
33268;SDS011;19640;50.944;5.260;2022-12-29T16:09:33;7.13;;;1.58;;
33268;SDS011;19640;50.944;5.260;2022-12-29T16:12:04;11.00;;;1.70;;
33268;SDS011;19640;50.944;5.260;2022-12-29T16:17:11;5.65;;;1.02;;
33268;SDS011;19640;50.944;5.260;2022-12-29T16:19:40;5.95;;;1.05;;
33268;SDS011;19640;50.944;5.260;2022-12-29T16:22:14;5.47;;;1.52;;
33268;SDS011;19640;50.944;5.260;2022-12-29T16:24:49;8.82;;;1.27;;
33268;SDS011;19640;50.944;5.260;2022-12-29T16:30:16;7.32;;;1.55;;
33268;SDS011;19640;50.944;5.260;2022-12-29T16:32:49;9.77;;;1.40;;
33268;SDS011;19640;50.944;5.260;2022-12-29T16:35:17;6.82;;;0.90;;
33268;SDS011;19640;50.944;5.260;2022-12-29T16:37:45;8.18;;;1.40;;
33268;SDS011;19640;50.944;5.260;2022-12-29T16:47:44;8.82;;;1.10;;
33268;SDS011;19640;50.944;5.260;2022-12-29T16:50:29;6.75;;;0.93;;
33268;SDS011;19640;50.944;5.260;2022-12-29T16:52:55;6.60;;;1.05;;
33268;SDS011;19640;50.944;5.260;2022-12-29T16:55:21;9.15;;;1.60;;
33268;SDS011;19640;50.944;5.260;2022-12-29T16:57:47;6.47;;;1.38;;
33268;SDS011;19640;50.944;5.260;2022-12-29T17:00:20;11.65;;;1.30;;
33268;SDS011;19640;50.944;5.260;2022-12-29T17:02:50;6.63;;;1.60;;
33268;SDS011;19640;50.944;5.260;2022-12-29T17:05:19;5.97;;;1.05;;
33268;SDS011;19640;50.944;5.260;2022-12-29T17:07:45;10.90;;;1.58;;
33268;SDS011;19640;50.944;5.260;2022-12-29T17:10:11;8.40;;;1.92;;
33268;SDS011;19640;50.944;5.260;2022-12-29T17:12:40;15.13;;;2.13;;
33268;SDS011;19640;50.944;5.260;2022-12-29T17:15:24;3.20;;;1.20;;
33268;SDS011;19640;50.944;5.260;2022-12-29T17:17:51;8.13;;;1.58;;
33268;SDS011;19640;50.944;5.260;2022-12-29T17:20:23;7.07;;;1.30;;
33268;SDS011;19640;50.944;5.260;2022-12-29T17:22:54;12.77;;;1.80;;
33268;SDS011;19640;50.944;5.260;2022-12-29T17:25:20;10.80;;;1.42;;
33268;SDS011;19640;50.944;5.260;2022-12-29T17:27:56;9.60;;;1.35;;
33268;SDS011;19640;50.944;5.260;2022-12-29T17:30:25;6.32;;;1.75;;
33268;SDS011;19640;50.944;5.260;2022-12-29T17:32:53;6.35;;;1.67;;
33268;SDS011;19640;50.944;5.260;2022-12-29T17:35:27;13.38;;;1.95;;
33268;SDS011;19640;50.944;5.260;2022-12-29T17:37:53;9.32;;;1.60;;
33268;SDS011;19640;50.944;5.260;2022-12-29T17:40:19;14.57;;;2.35;;
33268;SDS011;19640;50.944;5.260;2022-12-29T17:42:51;8.80;;;1.70;;
33268;SDS011;19640;50.944;5.260;2022-12-29T17:47:56;8.90;;;1.40;;